Time;durP1;ratioP1;P1;durP2;ratioP2;P2;SDS_P1;SDS_P2;PMS_P1;PMS_P2;Temp;Humidity;BMP_temperature;BMP_pressure;BME280_temperature;BME280_humidity;BME280_pressure;Samples;Min_cycle;Max_cycle;Signal;HPM_P1;HPM_P2
2022/01/31 00:02:15;;;;;;;;;;;8.40;99.90;;;;;;4939105;29;19921;-91
2022/01/31 00:04:42;;;;;;;;;;;8.40;99.90;;;;;;4934637;29;19949;-92
2022/01/31 00:07:08;;;;;;;;;;;8.40;99.90;;;;;;4935036;29;19907;-91
2022/01/31 00:09:34;;;;;;;;;;;8.40;99.90;;;;;;4934837;29;20292;-91
2022/01/31 00:12:04;;;;;;;;;;;8.40;99.90;;;;;;4934833;29;19911;-91
2022/01/31 00:16:55;;;;;;;;;;;8.50;99.90;;;;;;4937628;29;19906;-91
2022/01/31 00:19:23;;;;;;;;;;;8.50;99.90;;;;;;4934835;29;20001;-90
2022/01/31 00:21:49;;;;;;;;;;;8.40;99.90;;;;;;4934593;29;19907;-91
2022/01/31 00:24:15;;;;;;;;;;;8.40;99.90;;;;;;4936098;29;19906;-89
2022/01/31 00:26:40;;;;;;;;;;;8.40;99.90;;;;;;4935205;29;19906;-91
2022/01/31 00:29:06;;;;;;;;;;;8.40;99.90;;;;;;4938128;29;20406;-90
2022/01/31 00:31:32;;;;;;;;;;;8.40;99.90;;;;;;4935436;29;20467;-90
2022/01/31 00:33:57;;;;;;;;;;;8.30;99.90;;;;;;4936677;29;19907;-90
2022/01/31 00:36:23;;;;;;;;;;;8.40;99.90;;;;;;4940239;29;19913;-90
2022/01/31 00:38:49;;;;;;;;;;;8.30;99.90;;;;;;4936796;29;19974;-90
2022/01/31 00:41:14;;;;;;;;;;;8.30;99.90;;;;;;4936238;29;19906;-90
2022/01/31 00:43:41;;;;;;;;;;;8.30;99.90;;;;;;4936622;29;19906;-93
2022/01/31 00:46:12;;;;;;;;;;;8.30;99.90;;;;;;4943943;29;19914;-92
2022/01/31 00:48:44;;;;;;;;;;;8.30;99.90;;;;;;4945380;29;19938;-92
2022/01/31 00:51:10;;;;;;;;;;;8.40;99.90;;;;;;4946617;29;19907;-93
2022/01/31 00:53:36;;;;;;;;;;;8.30;99.90;;;;;;4945624;29;19946;-92
2022/01/31 00:56:02;;;;;;;;;;;8.40;99.90;;;;;;4942000;29;19907;-92
2022/01/31 00:58:28;;;;;;;;;;;8.40;99.90;;;;;;4944420;29;19954;-91
2022/01/31 01:00:53;;;;;;;;;;;8.40;99.90;;;;;;4946007;29;19931;-93
2022/01/31 01:03:19;;;;;;;;;;;8.40;99.90;;;;;;4945843;29;20075;-91
2022/01/31 01:05:44;;;;;;;;;;;8.40;99.90;;;;;;4945502;29;19907;-91
2022/01/31 01:08:10;;;;;;;;;;;8.40;99.90;;;;;;4949644;29;19907;-92
2022/01/31 01:10:36;;;;;;;;;;;8.30;99.90;;;;;;4951085;29;20260;-92
2022/01/31 01:13:01;;;;;;;;;;;8.40;99.90;;;;;;4943935;29;19922;-91
2022/01/31 01:15:27;;;;;;;;;;;8.30;99.90;;;;;;4950982;29;19914;-92
2022/01/31 01:17:53;;;;;;;;;;;8.30;99.90;;;;;;4951333;29;20075;-93
2022/01/31 01:20:18;;;;;;;;;;;8.30;99.90;;;;;;4949996;29;19997;-93
2022/01/31 01:22:44;;;;;;;;;;;8.30;99.90;;;;;;4947924;29;20427;-93
2022/01/31 01:25:12;;;;;;;;;;;8.30;99.90;;;;;;4938410;29;19979;-91
2022/01/31 01:27:37;;;;;;;;;;;8.40;99.90;;;;;;4938347;29;20253;-92
2022/01/31 01:30:04;;;;;;;;;;;8.30;99.90;;;;;;4938303;29;20005;-92
2022/01/31 01:32:34;;;;;;;;;;;8.40;99.90;;;;;;4937994;29;19938;-92
2022/01/31 01:35:04;;;;;;;;;;;8.40;99.90;;;;;;4937874;29;19907;-92
2022/01/31 01:37:29;;;;;;;;;;;8.30;99.90;;;;;;4937991;29;20344;-91
2022/01/31 01:39:55;;;;;;;;;;;8.30;99.90;;;;;;4938067;29;19934;-92
2022/01/31 01:42:21;;;;;;;;;;;8.30;99.90;;;;;;4938116;29;20287;-93
2022/01/31 01:44:53;;;;;;;;;;;8.20;99.90;;;;;;4939085;29;19907;-92
2022/01/31 01:47:20;;;;;;;;;;;8.30;99.90;;;;;;4939412;29;20121;-91
2022/01/31 01:49:46;;;;;;;;;;;8.20;99.90;;;;;;4937653;29;19926;-92
2022/01/31 01:52:11;;;;;;;;;;;8.20;99.90;;;;;;4938720;29;19906;-91
2022/01/31 01:54:37;;;;;;;;;;;8.10;99.90;;;;;;4942425;29;19907;-91
2022/01/31 01:57:03;;;;;;;;;;;8.00;99.90;;;;;;4938204;29;19914;-93
2022/01/31 01:59:29;;;;;;;;;;;8.00;99.90;;;;;;4937468;29;20531;-92
2022/01/31 02:01:55;;;;;;;;;;;8.00;99.90;;;;;;4937523;29;19913;-92
2022/01/31 02:04:21;;;;;;;;;;;8.00;99.90;;;;;;4937498;29;19997;-92
2022/01/31 02:06:46;;;;;;;;;;;8.00;99.90;;;;;;4937676;29;19970;-90
2022/01/31 02:09:12;;;;;;;;;;;8.00;99.90;;;;;;4936676;29;20346;-90
2022/01/31 02:11:38;;;;;;;;;;;8.10;99.90;;;;;;4937074;29;19950;-90
2022/01/31 02:14:03;;;;;;;;;;;8.10;99.90;;;;;;4937023;29;19918;-90
2022/01/31 02:16:29;;;;;;;;;;;8.20;99.90;;;;;;4938184;29;19990;-92
2022/01/31 02:18:55;;;;;;;;;;;8.20;99.90;;;;;;4936121;29;20027;-93
2022/01/31 02:21:21;;;;;;;;;;;8.30;99.90;;;;;;4937053;29;19911;-93
2022/01/31 02:23:47;;;;;;;;;;;8.20;99.90;;;;;;4937060;29;20435;-92
2022/01/31 02:26:13;;;;;;;;;;;8.20;99.90;;;;;;4936623;29;20035;-92
2022/01/31 02:28:39;;;;;;;;;;;8.20;99.90;;;;;;4939649;29;19981;-93
2022/01/31 02:31:05;;;;;;;;;;;8.20;99.90;;;;;;4936996;29;20283;-91
2022/01/31 02:33:31;;;;;;;;;;;8.20;99.90;;;;;;4936750;29;19907;-92
2022/01/31 02:36:00;;;;;;;;;;;8.30;99.90;;;;;;4937831;29;20389;-93
2022/01/31 02:38:26;;;;;;;;;;;8.30;99.90;;;;;;4936502;29;19907;-92
2022/01/31 02:40:52;;;;;;;;;;;8.30;99.90;;;;;;4936993;29;20279;-93
2022/01/31 02:43:50;;;;;;;;;;;8.40;99.90;;;;;;4936712;29;19907;-92
2022/01/31 02:46:16;;;;;;;;;;;8.40;99.90;;;;;;4920310;29;19907;-93
2022/01/31 02:48:42;;;;;;;;;;;8.40;99.90;;;;;;4936353;29;19910;-93
2022/01/31 02:51:12;;;;;;;;;;;8.40;99.90;;;;;;4936134;29;19906;-93
2022/01/31 02:53:41;;;;;;;;;;;8.40;99.90;;;;;;4936241;29;20499;-93
2022/01/31 02:56:07;;;;;;;;;;;8.40;99.90;;;;;;4936529;29;20011;-92
2022/01/31 02:58:32;;;;;;;;;;;8.30;99.90;;;;;;4936493;29;19958;-92
2022/01/31 03:00:58;;;;;;;;;;;8.40;99.90;;;;;;4936182;29;20427;-93
2022/01/31 03:03:24;;;;;;;;;;;8.40;99.90;;;;;;4936494;29;19914;-93
2022/01/31 03:05:49;;;;;;;;;;;8.40;99.90;;;;;;4936625;29;19914;-93
2022/01/31 03:08:15;;;;;;;;;;;8.40;99.90;;;;;;4935834;29;19907;-92
2022/01/31 03:10:41;;;;;;;;;;;8.40;99.90;;;;;;4935827;29;19910;-91
2022/01/31 03:13:06;;;;;;;;;;;8.40;99.90;;;;;;4932848;29;19927;-93
2022/01/31 03:15:33;;;;;;;;;;;8.20;99.90;;;;;;4918286;29;19962;-93
2022/01/31 03:17:59;;;;;;;;;;;8.30;99.90;;;;;;4918299;29;19913;-93
2022/01/31 03:20:25;;;;;;;;;;;8.40;99.90;;;;;;4932964;29;19962;-93
2022/01/31 03:22:51;;;;;;;;;;;8.40;99.90;;;;;;4934862;29;19911;-92
2022/01/31 03:25:17;;;;;;;;;;;8.30;99.90;;;;;;4932760;29;20459;-93
2022/01/31 03:27:43;;;;;;;;;;;8.30;99.90;;;;;;4918060;29;19914;-92
2022/01/31 03:30:11;;;;;;;;;;;8.30;99.90;;;;;;4932517;29;20384;-93
2022/01/31 03:32:37;;;;;;;;;;;8.40;99.90;;;;;;4932957;29;20439;-92
2022/01/31 03:35:03;;;;;;;;;;;8.40;99.90;;;;;;4932966;29;19907;-93
2022/01/31 03:37:29;;;;;;;;;;;8.30;99.90;;;;;;4933028;29;20029;-92
2022/01/31 03:39:54;;;;;;;;;;;8.40;99.90;;;;;;4932842;29;19926;-93
2022/01/31 03:42:20;;;;;;;;;;;8.40;99.90;;;;;;4932840;29;19911;-92
2022/01/31 03:44:47;;;;;;;;;;;8.40;99.90;;;;;;4933096;29;19910;-92
2022/01/31 03:47:13;;;;;;;;;;;8.40;99.90;;;;;;4918143;29;19907;-89
2022/01/31 03:49:38;;;;;;;;;;;8.40;99.90;;;;;;4941013;29;19915;-90
2022/01/31 03:52:04;;;;;;;;;;;8.50;99.90;;;;;;4919415;29;19974;-90
2022/01/31 03:54:29;;;;;;;;;;;8.50;99.90;;;;;;4932719;29;19907;-90
2022/01/31 03:56:55;;;;;;;;;;;8.50;99.90;;;;;;4932506;29;19914;-90
2022/01/31 03:59:20;;;;;;;;;;;8.50;99.90;;;;;;4932732;29;19907;-89
2022/01/31 04:01:46;;;;;;;;;;;8.40;99.90;;;;;;4932373;29;19907;-90
2022/01/31 04:04:13;;;;;;;;;;;8.40;99.90;;;;;;4932616;29;19907;-90
2022/01/31 04:06:39;;;;;;;;;;;8.40;99.90;;;;;;4916297;29;20336;-91
2022/01/31 04:09:06;;;;;;;;;;;8.40;99.90;;;;;;4932034;29;19915;-93
2022/01/31 04:11:31;;;;;;;;;;;8.50;99.90;;;;;;4932103;29;19907;-90
2022/01/31 04:13:57;;;;;;;;;;;8.40;99.90;;;;;;4933839;29;19918;-91
2022/01/31 04:16:23;;;;;;;;;;;8.40;99.90;;;;;;4935485;29;19907;-92
2022/01/31 04:18:48;;;;;;;;;;;8.40;99.90;;;;;;4935917;29;19914;-91
2022/01/31 04:21:14;;;;;;;;;;;8.40;99.90;;;;;;4935105;29;19907;-91
2022/01/31 04:23:40;;;;;;;;;;;8.40;99.90;;;;;;4934965;29;19907;-91
2022/01/31 04:26:13;;;;;;;;;;;8.40;99.90;;;;;;4934860;29;19950;-91
2022/01/31 04:28:48;;;;;;;;;;;8.40;99.90;;;;;;4936148;29;19918;-90
2022/01/31 04:31:34;;;;;;;;;;;8.50;99.90;;;;;;4934648;29;20335;-90
2022/01/31 04:34:00;;;;;;;;;;;8.40;99.90;;;;;;4935641;29;19906;-90
2022/01/31 04:36:25;;;;;;;;;;;8.50;99.90;;;;;;4934640;29;19917;-90
2022/01/31 04:38:51;;;;;;;;;;;8.50;99.90;;;;;;4934513;29;19907;-91
2022/01/31 04:41:17;;;;;;;;;;;8.50;99.90;;;;;;4933679;29;19953;-91
2022/01/31 04:43:44;;;;;;;;;;;8.60;99.90;;;;;;4934359;29;20045;-91
2022/01/31 04:46:10;;;;;;;;;;;8.50;99.90;;;;;;4934128;29;20005;-90
2022/01/31 04:48:36;;;;;;;;;;;8.50;99.90;;;;;;4934222;29;20017;-91
2022/01/31 04:51:02;;;;;;;;;;;8.60;99.90;;;;;;4934305;29;19925;-91
2022/01/31 04:53:27;;;;;;;;;;;8.50;99.90;;;;;;4935408;29;19958;-91
2022/01/31 04:55:53;;;;;;;;;;;8.50;99.90;;;;;;4934237;29;19907;-90
2022/01/31 04:58:21;;;;;;;;;;;8.60;99.90;;;;;;4935368;29;20299;-91
2022/01/31 05:00:47;;;;;;;;;;;8.60;99.90;;;;;;4935654;29;19950;-91
2022/01/31 05:03:15;;;;;;;;;;;8.60;99.90;;;;;;4935399;29;19945;-91
2022/01/31 05:05:42;;;;;;;;;;;8.60;99.90;;;;;;4933820;29;19914;-90
2022/01/31 05:08:08;;;;;;;;;;;8.60;99.90;;;;;;4935188;29;20484;-91
2022/01/31 05:10:35;;;;;;;;;;;8.60;99.90;;;;;;4935412;29;19911;-90
2022/01/31 05:13:01;;;;;;;;;;;8.60;99.90;;;;;;4933756;29;19919;-90
2022/01/31 05:15:26;;;;;;;;;;;8.60;99.90;;;;;;4934070;29;19937;-89
2022/01/31 05:17:52;;;;;;;;;;;8.60;99.90;;;;;;4935582;29;20367;-91
2022/01/31 05:20:17;;;;;;;;;;;8.60;99.90;;;;;;4935379;29;19914;-91
2022/01/31 05:22:43;;;;;;;;;;;8.60;99.90;;;;;;4935019;29;19907;-90
2022/01/31 05:25:09;;;;;;;;;;;8.60;99.90;;;;;;4935109;29;19907;-90
2022/01/31 05:27:35;;;;;;;;;;;8.60;99.90;;;;;;4933720;29;19915;-90
2022/01/31 05:30:01;;;;;;;;;;;8.50;99.90;;;;;;4933765;29;20015;-91
2022/01/31 05:32:26;;;;;;;;;;;8.50;99.90;;;;;;4935061;29;19907;-91
2022/01/31 05:34:52;;;;;;;;;;;8.40;99.90;;;;;;4933919;29;19914;-90
2022/01/31 05:37:17;;;;;;;;;;;8.40;99.90;;;;;;4933910;29;19930;-90
2022/01/31 05:39:44;;;;;;;;;;;8.50;99.90;;;;;;4933668;29;20005;-91
2022/01/31 05:42:09;;;;;;;;;;;8.50;99.90;;;;;;4933552;29;19906;-90
2022/01/31 05:44:35;;;;;;;;;;;8.50;99.90;;;;;;4941528;29;20394;-91
2022/01/31 05:47:01;;;;;;;;;;;8.60;99.90;;;;;;4935068;29;19907;-91
2022/01/31 05:49:26;;;;;;;;;;;8.60;99.90;;;;;;4934971;29;19950;-90
2022/01/31 05:52:02;;;;;;;;;;;8.50;99.90;;;;;;4936165;29;20317;-90
2022/01/31 05:54:28;;;;;;;;;;;8.50;99.90;;;;;;4937500;29;19906;-91
2022/01/31 05:56:54;;;;;;;;;;;8.40;99.90;;;;;;4937442;29;19907;-91
2022/01/31 05:59:20;;;;;;;;;;;8.40;99.90;;;;;;4938371;29;20280;-91
2022/01/31 06:01:46;;;;;;;;;;;8.50;99.90;;;;;;4937036;29;19911;-91
2022/01/31 06:04:11;;;;;;;;;;;8.50;99.90;;;;;;4938389;29;20006;-91
2022/01/31 06:06:37;;;;;;;;;;;8.50;99.90;;;;;;4936938;29;20351;-90
2022/01/31 06:09:03;;;;;;;;;;;8.50;99.90;;;;;;4937940;29;19910;-90
2022/01/31 06:11:31;;;;;;;;;;;8.60;99.90;;;;;;4937084;29;19910;-90
2022/01/31 06:13:57;;;;;;;;;;;8.60;99.90;;;;;;4936742;29;19965;-91
2022/01/31 06:16:22;;;;;;;;;;;8.60;99.90;;;;;;4936738;29;19906;-90
2022/01/31 06:18:48;;;;;;;;;;;8.60;99.90;;;;;;4936501;29;20525;-90
2022/01/31 06:21:15;;;;;;;;;;;8.70;99.90;;;;;;4936364;29;19911;-90
2022/01/31 06:23:41;;;;;;;;;;;8.70;99.90;;;;;;4920575;29;19998;-90
2022/01/31 06:26:06;;;;;;;;;;;8.70;99.90;;;;;;4937520;29;20002;-91
2022/01/31 06:28:32;;;;;;;;;;;8.60;99.90;;;;;;4936939;29;19917;-91
2022/01/31 06:30:58;;;;;;;;;;;8.70;99.90;;;;;;4936310;29;19911;-89
2022/01/31 06:33:23;;;;;;;;;;;8.70;99.90;;;;;;4938656;29;19906;-89
2022/01/31 06:35:49;;;;;;;;;;;8.60;99.90;;;;;;4939926;29;19907;-89
2022/01/31 06:38:15;;;;;;;;;;;8.60;99.90;;;;;;4944005;29;19902;-90
2022/01/31 06:40:40;;;;;;;;;;;8.70;99.90;;;;;;4946745;29;19903;-89
2022/01/31 06:43:06;;;;;;;;;;;8.70;99.90;;;;;;4929759;29;19907;-92
2022/01/31 06:45:32;;;;;;;;;;;8.70;99.90;;;;;;4943720;29;19946;-89
2022/01/31 06:47:57;;;;;;;;;;;8.70;99.90;;;;;;4929611;29;19903;-90
2022/01/31 06:50:23;;;;;;;;;;;8.70;99.90;;;;;;4946240;29;19911;-90
2022/01/31 06:52:53;;;;;;;;;;;8.70;99.90;;;;;;4945843;29;19950;-89
2022/01/31 06:55:20;;;;;;;;;;;8.70;99.90;;;;;;4939922;29;20150;-90
2022/01/31 06:57:46;;;;;;;;;;;8.80;99.90;;;;;;4928261;29;19903;-90
2022/01/31 07:00:12;;;;;;;;;;;8.80;99.90;;;;;;4943281;29;20453;-90
2022/01/31 07:02:38;;;;;;;;;;;8.80;99.90;;;;;;4921620;29;19942;-90
2022/01/31 07:05:04;;;;;;;;;;;8.80;99.90;;;;;;4928341;29;19910;-90
2022/01/31 07:07:29;;;;;;;;;;;8.80;99.90;;;;;;4941489;29;19906;-89
2022/01/31 07:09:55;;;;;;;;;;;8.80;99.90;;;;;;4927629;29;19917;-90
2022/01/31 07:12:28;;;;;;;;;;;8.70;99.90;;;;;;4926436;29;19911;-90
2022/01/31 07:14:54;;;;;;;;;;;8.80;99.90;;;;;;4942777;29;19930;-91
2022/01/31 07:17:19;;;;;;;;;;;8.80;99.90;;;;;;4925679;29;19903;-90
2022/01/31 07:19:45;;;;;;;;;;;8.70;99.90;;;;;;4945346;29;19910;-89
2022/01/31 07:22:13;;;;;;;;;;;8.80;99.90;;;;;;4923919;29;19903;-90
2022/01/31 07:27:05;;;;;;;;;;;8.90;99.90;;;;;;4948355;29;19986;-93
2022/01/31 07:29:31;;;;;;;;;;;8.90;99.90;;;;;;4920345;29;19915;-93
2022/01/31 07:31:57;;;;;;;;;;;8.90;99.90;;;;;;4922573;29;19926;-92
2022/01/31 07:34:26;;;;;;;;;;;8.90;99.90;;;;;;4919037;29;19938;-93
2022/01/31 07:36:52;;;;;;;;;;;8.80;99.90;;;;;;4938822;29;19906;-92
2022/01/31 07:39:21;;;;;;;;;;;8.90;99.90;;;;;;4946199;29;20272;-92
2022/01/31 07:41:48;;;;;;;;;;;8.80;99.90;;;;;;4923301;29;19930;-93
2022/01/31 07:44:14;;;;;;;;;;;8.80;99.90;;;;;;4922207;29;20009;-92
2022/01/31 07:46:43;;;;;;;;;;;8.90;99.90;;;;;;4936108;29;19979;-93
2022/01/31 07:49:09;;;;;;;;;;;8.90;99.90;;;;;;4921232;29;19915;-93
2022/01/31 07:51:38;;;;;;;;;;;8.90;99.90;;;;;;4922055;29;19933;-93
2022/01/31 07:54:03;;;;;;;;;;;8.90;99.90;;;;;;4921766;29;19918;-93
2022/01/31 07:56:37;;;;;;;;;;;8.90;99.90;;;;;;4922403;29;19997;-93
2022/01/31 07:59:03;;;;;;;;;;;8.90;99.90;;;;;;4923909;29;19895;-93
2022/01/31 08:01:29;;;;;;;;;;;8.90;99.90;;;;;;4921510;29;20359;-93
2022/01/31 08:04:09;;;;;;;;;;;8.90;99.90;;;;;;4936784;29;19966;-93
2022/01/31 08:06:35;;;;;;;;;;;9.00;99.90;;;;;;4920728;29;19918;-93
2022/01/31 08:09:01;;;;;;;;;;;9.00;99.90;;;;;;4922156;29;19957;-93
2022/01/31 08:11:32;;;;;;;;;;;9.10;99.90;;;;;;4921337;29;19914;-93
2022/01/31 08:14:01;;;;;;;;;;;9.10;99.90;;;;;;4920765;29;19982;-93
2022/01/31 08:16:27;;;;;;;;;;;9.10;99.90;;;;;;4920484;29;19953;-92
2022/01/31 08:18:53;;;;;;;;;;;9.10;99.90;;;;;;4924351;29;20386;-92
2022/01/31 08:21:20;;;;;;;;;;;9.20;99.90;;;;;;4919638;29;20341;-94
2022/01/31 08:23:47;;;;;;;;;;;9.20;99.90;;;;;;4939743;29;19914;-94
2022/01/31 08:26:21;;;;;;;;;;;9.30;99.90;;;;;;4920183;29;19907;-94
2022/01/31 08:28:59;;;;;;;;;;;9.30;99.90;;;;;;4919695;29;20332;-95
2022/01/31 08:37:14;;;;;;;;;;;9.40;99.90;;;;;;4940658;29;20392;-93
2022/01/31 08:39:40;;;;;;;;;;;9.40;99.90;;;;;;4924606;29;19958;-94
2022/01/31 08:42:06;;;;;;;;;;;9.40;99.90;;;;;;4922378;29;19911;-93
2022/01/31 08:44:32;;;;;;;;;;;9.40;99.90;;;;;;4920301;29;19911;-93
2022/01/31 08:46:57;;;;;;;;;;;9.30;99.90;;;;;;4922410;29;20400;-94
2022/01/31 08:49:23;;;;;;;;;;;9.30;99.90;;;;;;4922181;29;19938;-93
2022/01/31 08:51:52;;;;;;;;;;;9.30;99.90;;;;;;4920091;29;19906;-94
2022/01/31 08:54:20;;;;;;;;;;;9.40;99.90;;;;;;4942396;29;19911;-93
2022/01/31 08:56:47;;;;;;;;;;;9.40;99.90;;;;;;4923694;29;20062;-93
2022/01/31 08:59:16;;;;;;;;;;;9.40;99.90;;;;;;4922420;29;19946;-93
2022/01/31 09:01:43;;;;;;;;;;;9.40;99.90;;;;;;4928809;29;19895;-93
2022/01/31 09:04:11;;;;;;;;;;;9.40;99.90;;;;;;4922615;29;19914;-94
2022/01/31 09:06:37;;;;;;;;;;;9.40;99.90;;;;;;4919924;29;20336;-94
2022/01/31 09:09:05;;;;;;;;;;;9.40;99.90;;;;;;4920852;29;19932;-94
2022/01/31 09:11:31;;;;;;;;;;;9.30;99.90;;;;;;4927282;29;20001;-93
2022/01/31 09:13:59;;;;;;;;;;;9.30;99.90;;;;;;4922938;29;19903;-94
2022/01/31 09:16:24;;;;;;;;;;;9.40;99.90;;;;;;4921360;29;19895;-93
2022/01/31 09:18:50;;;;;;;;;;;9.60;99.90;;;;;;4941956;29;19922;-94
2022/01/31 09:21:16;;;;;;;;;;;9.70;99.90;;;;;;4919302;29;19994;-93
2022/01/31 09:23:41;;;;;;;;;;;9.70;99.90;;;;;;4919405;29;19938;-92
2022/01/31 09:26:07;;;;;;;;;;;9.60;99.90;;;;;;4920015;29;19915;-93
2022/01/31 09:28:34;;;;;;;;;;;9.70;99.90;;;;;;4940500;29;19953;-93
2022/01/31 09:30:59;;;;;;;;;;;9.70;99.90;;;;;;4923350;29;20268;-93
2022/01/31 09:33:25;;;;;;;;;;;9.70;99.90;;;;;;4929164;29;19915;-92
2022/01/31 09:35:51;;;;;;;;;;;9.70;99.90;;;;;;4933589;29;20015;-93
2022/01/31 09:38:25;;;;;;;;;;;9.70;99.90;;;;;;4924342;29;19911;-93
2022/01/31 09:40:52;;;;;;;;;;;9.70;99.90;;;;;;4925018;29;19910;-93
2022/01/31 09:48:41;;;;;;;;;;;9.50;99.90;;;;;;4942732;29;20292;-93
2022/01/31 09:51:20;;;;;;;;;;;9.50;99.90;;;;;;4921552;29;19915;-93
2022/01/31 09:53:47;;;;;;;;;;;9.60;99.90;;;;;;4922879;29;19907;-93
2022/01/31 09:56:22;;;;;;;;;;;9.50;99.90;;;;;;4938487;29;20371;-94
2022/01/31 09:58:49;;;;;;;;;;;9.60;99.90;;;;;;4921872;29;19907;-93
2022/01/31 10:01:49;;;;;;;;;;;9.70;99.90;;;;;;4941200;29;19910;-93
2022/01/31 10:04:25;;;;;;;;;;;9.60;99.90;;;;;;4924051;29;20030;-93
2022/01/31 10:06:52;;;;;;;;;;;9.50;99.90;;;;;;4927115;29;19911;-94
2022/01/31 10:09:25;;;;;;;;;;;9.50;99.90;;;;;;4923584;29;19918;-93
2022/01/31 10:12:08;;;;;;;;;;;9.50;99.90;;;;;;4943666;29;20443;-93
2022/01/31 10:17:22;;;;;;;;;;;9.60;99.90;;;;;;4939349;29;19914;-94
2022/01/31 10:19:48;;;;;;;;;;;9.60;99.90;;;;;;4926267;29;19910;-93
2022/01/31 10:22:15;;;;;;;;;;;9.70;99.90;;;;;;4924412;29;19958;-94
2022/01/31 10:24:47;;;;;;;;;;;9.70;99.90;;;;;;4941839;29;19910;-93
2022/01/31 10:27:36;;;;;;;;;;;9.90;99.90;;;;;;4923076;29;19910;-93
2022/01/31 10:30:12;;;;;;;;;;;10.20;99.90;;;;;;4925250;29;19926;-94
2022/01/31 10:32:42;;;;;;;;;;;10.40;99.90;;;;;;4921617;29;19906;-93
2022/01/31 10:35:13;;;;;;;;;;;10.70;99.90;;;;;;4925482;29;20010;-94
2022/01/31 10:37:40;;;;;;;;;;;10.80;99.90;;;;;;4925255;29;19891;-94
2022/01/31 10:54:03;;;;;;;;;;;11.00;99.90;;;;;;4940201;29;20402;-94
2022/01/31 10:56:42;;;;;;;;;;;10.90;99.90;;;;;;4925390;29;19918;-94
2022/01/31 10:59:14;;;;;;;;;;;10.90;99.90;;;;;;4925823;29;19918;-94
2022/01/31 11:01:40;;;;;;;;;;;11.00;99.90;;;;;;4921707;29;19978;-93
2022/01/31 11:04:12;;;;;;;;;;;10.90;99.90;;;;;;4924352;29;19954;-93
2022/01/31 11:06:41;;;;;;;;;;;10.90;99.90;;;;;;4923225;29;20284;-94
2022/01/31 11:09:14;;;;;;;;;;;10.90;99.90;;;;;;4922043;29;19914;-94
2022/01/31 11:11:44;;;;;;;;;;;11.00;99.90;;;;;;4925015;29;20002;-93
2022/01/31 11:14:11;;;;;;;;;;;11.00;99.90;;;;;;4922799;29;19919;-93
2022/01/31 11:16:37;;;;;;;;;;;10.90;99.90;;;;;;4923350;29;19915;-94
2022/01/31 11:19:06;;;;;;;;;;;10.80;99.90;;;;;;4921741;29;19906;-94
2022/01/31 11:21:33;;;;;;;;;;;10.80;99.90;;;;;;4923308;29;19907;-94
2022/01/31 11:24:02;;;;;;;;;;;10.90;99.90;;;;;;4921298;29;19911;-94
2022/01/31 11:26:38;;;;;;;;;;;10.90;99.90;;;;;;4924774;29;19906;-94
2022/01/31 11:29:05;;;;;;;;;;;10.90;99.90;;;;;;4923393;29;19938;-94
2022/01/31 11:31:31;;;;;;;;;;;11.00;99.90;;;;;;4922126;29;19921;-94
2022/01/31 11:33:58;;;;;;;;;;;11.00;99.90;;;;;;4924530;29;19907;-94
2022/01/31 11:36:25;;;;;;;;;;;11.00;99.90;;;;;;4937169;29;20261;-95
2022/01/31 11:38:51;;;;;;;;;;;10.90;99.90;;;;;;4937951;29;19913;-93
2022/01/31 11:41:18;;;;;;;;;;;11.00;99.90;;;;;;4936215;29;19922;-95
2022/01/31 11:43:51;;;;;;;;;;;11.00;99.90;;;;;;4939011;29;19945;-94
2022/01/31 11:46:24;;;;;;;;;;;11.10;99.90;;;;;;4933822;29;19906;-94
2022/01/31 11:48:52;;;;;;;;;;;11.20;99.90;;;;;;4938332;29;19962;-95
2022/01/31 11:51:21;;;;;;;;;;;11.20;99.90;;;;;;4919495;29;20001;-94
2022/01/31 11:54:05;;;;;;;;;;;11.20;99.90;;;;;;4920215;29;20359;-95
2022/01/31 11:57:03;;;;;;;;;;;11.20;99.90;;;;;;4920155;29;19946;-96
2022/01/31 11:59:45;;;;;;;;;;;11.30;99.90;;;;;;4876932;29;19943;-95
2022/01/31 12:02:34;;;;;;;;;;;11.40;99.90;;;;;;4888711;29;19953;-95
2022/01/31 12:08:11;;;;;;;;;;;11.70;99.90;;;;;;4932128;29;20004;-94
2022/01/31 12:10:43;;;;;;;;;;;11.80;99.90;;;;;;4918933;29;19918;-94
2022/01/31 12:13:29;;;;;;;;;;;11.90;99.90;;;;;;4930075;29;19926;-94
2022/01/31 12:23:46;;;;;;;;;;;11.80;99.90;;;;;;4934985;29;19938;-92
2022/01/31 12:26:50;;;;;;;;;;;11.70;99.90;;;;;;4916323;29;19901;-94
2022/01/31 12:29:17;;;;;;;;;;;11.40;99.90;;;;;;4939451;29;19927;-95
2022/01/31 12:31:48;;;;;;;;;;;11.50;99.90;;;;;;4939843;29;19910;-94
2022/01/31 12:34:22;;;;;;;;;;;11.60;99.90;;;;;;4939637;29;19899;-95
2022/01/31 12:36:52;;;;;;;;;;;11.70;99.90;;;;;;4955275;29;19899;-94
2022/01/31 12:42:45;;;;;;;;;;;11.70;99.90;;;;;;4939678;29;19931;-95
2022/01/31 12:45:35;;;;;;;;;;;11.60;99.90;;;;;;4933967;29;19970;-94
2022/01/31 12:48:23;;;;;;;;;;;11.70;99.90;;;;;;4933289;29;19974;-94
2022/01/31 12:50:48;;;;;;;;;;;11.80;99.90;;;;;;4948969;29;19919;-94
2022/01/31 12:56:00;;;;;;;;;;;11.70;99.90;;;;;;4931880;29;20002;-95
2022/01/31 12:58:31;;;;;;;;;;;11.80;99.90;;;;;;4949602;29;19942;-94
2022/01/31 13:00:57;;;;;;;;;;;12.00;99.90;;;;;;4935746;29;19895;-95
2022/01/31 13:03:54;;;;;;;;;;;12.30;99.90;;;;;;4935140;29;19915;-95
2022/01/31 13:06:25;;;;;;;;;;;12.40;99.90;;;;;;4922409;29;19907;-95
2022/01/31 13:08:51;;;;;;;;;;;12.30;99.90;;;;;;4933226;29;19911;-94
2022/01/31 13:11:22;;;;;;;;;;;12.30;99.90;;;;;;4916120;29;19911;-94
2022/01/31 13:13:48;;;;;;;;;;;12.30;99.90;;;;;;4918031;29;19948;-94
2022/01/31 13:16:14;;;;;;;;;;;12.50;99.90;;;;;;4915856;29;19913;-94
2022/01/31 13:18:40;;;;;;;;;;;12.50;99.90;;;;;;4918509;29;19907;-93
2022/01/31 13:21:09;;;;;;;;;;;12.40;99.90;;;;;;4917091;29;20222;-93
2022/01/31 13:23:36;;;;;;;;;;;12.20;99.90;;;;;;4915893;29;19907;-94
2022/01/31 13:26:03;;;;;;;;;;;12.00;99.90;;;;;;4915150;29;19994;-94
2022/01/31 13:28:29;;;;;;;;;;;11.80;99.90;;;;;;4915996;29;20403;-94
2022/01/31 13:31:04;;;;;;;;;;;11.70;99.90;;;;;;4914964;29;19998;-94
2022/01/31 13:33:30;;;;;;;;;;;11.90;99.90;;;;;;4915995;29;20288;-94
2022/01/31 13:36:00;;;;;;;;;;;12.10;99.90;;;;;;4915404;29;19907;-94
2022/01/31 13:38:25;;;;;;;;;;;12.30;99.90;;;;;;4918375;29;20011;-95
2022/01/31 13:40:53;;;;;;;;;;;12.30;99.90;;;;;;4917277;29;20445;-94
2022/01/31 13:43:38;;;;;;;;;;;12.20;99.90;;;;;;4919986;29;19911;-95
2022/01/31 13:52:04;;;;;;;;;;;11.80;99.90;;;;;;4912570;29;19921;-95
2022/01/31 13:54:54;;;;;;;;;;;11.90;99.90;;;;;;4923728;29;19907;-95
2022/01/31 13:57:22;;;;;;;;;;;12.10;99.90;;;;;;4915755;29;20009;-95
2022/01/31 13:59:54;;;;;;;;;;;11.90;99.90;;;;;;4915041;29;19907;-95
2022/01/31 14:02:42;;;;;;;;;;;11.90;99.90;;;;;;4915352;29;19907;-95
2022/01/31 14:05:26;;;;;;;;;;;11.90;99.90;;;;;;4920847;29;19915;-95
2022/01/31 14:08:04;;;;;;;;;;;12.00;99.90;;;;;;4914144;29;20364;-95
2022/01/31 14:10:52;;;;;;;;;;;;;;;;;;;;;
2022/01/31 14:13:21;;;;;;;;;;;12.00;99.90;;;;;;4925926;29;19925;-95
2022/01/31 14:16:17;;;;;;;;;;;;;;;;;;;;;
2022/01/31 14:19:05;;;;;;;;;;;12.00;99.90;;;;;;4937743;29;19913;-95
2022/01/31 14:21:42;;;;;;;;;;;12.10;99.90;;;;;;4933398;29;19907;-95
2022/01/31 14:24:27;;;;;;;;;;;;;;;;;;;;;
2022/01/31 14:27:27;;;;;;;;;;;12.30;99.90;;;;;;4943271;29;19993;-95
2022/01/31 14:29:55;;;;;;;;;;;12.30;99.90;;;;;;4943674;29;19915;-95
2022/01/31 14:32:21;;;;;;;;;;;12.20;99.90;;;;;;4922519;29;19907;-94
2022/01/31 14:34:58;;;;;;;;;;;12.30;99.90;;;;;;4920415;29;19958;-95
2022/01/31 14:37:31;;;;;;;;;;;12.30;99.90;;;;;;4921169;29;19906;-94
2022/01/31 14:40:25;;;;;;;;;;;12.30;99.90;;;;;;4921835;29;19911;-96
2022/01/31 14:43:11;;;;;;;;;;;12.30;99.90;;;;;;4921710;29;19911;-94
2022/01/31 14:48:21;;;;;;;;;;;11.90;99.90;;;;;;4939369;29;19929;-95
2022/01/31 14:51:01;;;;;;;;;;;11.70;99.90;;;;;;4922345;29;20368;-95
2022/01/31 14:53:57;;;;;;;;;;;;;;;;;;;;;
2022/01/31 14:56:40;;;;;;;;;;;;;;;;;;;;;
2022/01/31 14:59:24;;;;;;;;;;;11.60;99.90;;;;;;4937871;29;20002;-95
2022/01/31 15:01:52;;;;;;;;;;;11.80;99.90;;;;;;4921440;29;19911;-95
2022/01/31 15:04:22;;;;;;;;;;;11.90;99.90;;;;;;4922379;29;19953;-95
2022/01/31 15:06:51;;;;;;;;;;;11.90;99.90;;;;;;4923891;29;19973;-95
2022/01/31 15:09:17;;;;;;;;;;;12.00;99.90;;;;;;4929735;29;19918;-94
2022/01/31 15:11:47;;;;;;;;;;;12.00;99.90;;;;;;4929905;29;19911;-96
2022/01/31 15:14:15;;;;;;;;;;;11.90;99.90;;;;;;4921517;29;19973;-94
2022/01/31 15:17:08;;;;;;;;;;;;;;;;;;;;;
2022/01/31 15:19:42;;;;;;;;;;;11.80;99.90;;;;;;4914356;29;20325;-95
2022/01/31 15:22:13;;;;;;;;;;;11.90;99.90;;;;;;4917983;29;19907;-94
2022/01/31 15:24:42;;;;;;;;;;;12.00;99.90;;;;;;4904180;29;19911;-95
2022/01/31 15:27:08;;;;;;;;;;;12.20;99.90;;;;;;4918008;29;20001;-95
2022/01/31 15:29:44;;;;;;;;;;;12.30;99.90;;;;;;4920302;29;19935;-96
2022/01/31 15:32:31;;;;;;;;;;;12.10;99.90;;;;;;4917233;29;19910;-95
2022/01/31 15:35:07;;;;;;;;;;;12.00;99.90;;;;;;4918310;29;19907;-95
2022/01/31 15:37:35;;;;;;;;;;;11.60;99.90;;;;;;4917644;29;19953;-94
2022/01/31 15:40:06;;;;;;;;;;;11.50;99.90;;;;;;4917515;29;19914;-95
2022/01/31 15:42:34;;;;;;;;;;;11.30;99.90;;;;;;4916618;29;19907;-95